createdAt,value
2022-08-02T00:01:35.236Z,32.78
2022-08-02T00:04:09.837Z,32.76
2022-08-02T00:06:41.551Z,32.73
2022-08-02T00:09:12.022Z,32.73
2022-08-02T00:11:43.157Z,32.72
2022-08-02T00:14:14.312Z,32.71
2022-08-02T00:16:45.789Z,32.68
2022-08-02T00:19:18.411Z,32.66
2022-08-02T00:21:49.753Z,32.64
2022-08-02T00:24:29.995Z,32.62
2022-08-02T00:27:09.277Z,32.60
2022-08-02T00:29:42.683Z,32.60
2022-08-02T00:32:23.932Z,32.59
2022-08-02T00:34:57.348Z,32.59
2022-08-02T00:37:28.438Z,32.58
2022-08-02T00:39:59.840Z,32.58
2022-08-02T00:42:30.840Z,32.57
2022-08-02T00:45:01.785Z,32.58
2022-08-02T00:47:33.070Z,32.58
2022-08-02T00:50:05.641Z,32.58
2022-08-02T00:52:36.858Z,32.56
2022-08-02T00:55:09.258Z,32.56
2022-08-02T00:57:42.638Z,32.54
2022-08-02T01:00:15.137Z,32.54
2022-08-02T01:02:46.463Z,32.53
2022-08-02T01:05:21.027Z,32.53
2022-08-02T01:07:52.158Z,32.54
2022-08-02T01:10:23.087Z,32.54
2022-08-02T01:12:53.614Z,32.54
2022-08-02T01:15:36.049Z,32.55
2022-08-02T01:18:16.193Z,32.54
2022-08-02T01:21:43.504Z,32.56
2022-08-02T01:24:52.008Z,32.54
2022-08-02T01:27:43.447Z,32.56
2022-08-02T01:30:17.285Z,32.55
2022-08-02T01:32:58.457Z,32.54
2022-08-02T01:35:51.079Z,32.54
2022-08-02T01:38:32.396Z,32.52
2022-08-02T01:41:06.123Z,32.49
2022-08-02T01:43:48.956Z,32.49
2022-08-02T01:46:24.013Z,32.48
2022-08-02T01:49:01.637Z,32.46
2022-08-02T01:51:52.944Z,32.45
2022-08-02T01:54:30.845Z,32.44
2022-08-02T01:57:06.809Z,32.41
2022-08-02T01:59:39.726Z,32.40
2022-08-02T02:02:15.410Z,32.39
2022-08-02T02:04:50.318Z,32.37
2022-08-02T02:07:23.713Z,32.37
2022-08-02T02:09:57.396Z,32.36
2022-08-02T02:12:30.912Z,32.35
2022-08-02T02:15:04.763Z,32.34
2022-08-02T02:17:53.100Z,32.34
2022-08-02T02:20:31.451Z,32.32
2022-08-02T02:23:03.167Z,32.31
2022-08-02T02:25:41.850Z,32.30
2022-08-02T02:28:29.441Z,32.29
2022-08-02T02:31:09.758Z,32.28
2022-08-02T02:33:51.677Z,32.28
2022-08-02T02:36:25.503Z,32.28
2022-08-02T02:38:58.827Z,32.26
2022-08-02T02:41:30.661Z,32.26
2022-08-02T02:44:07.150Z,32.26
2022-08-02T02:46:39.899Z,32.26
2022-08-02T02:49:15.105Z,32.26
2022-08-02T02:51:47.359Z,32.26
2022-08-02T02:54:29.838Z,32.26
2022-08-02T02:57:08.015Z,32.24
2022-08-02T02:59:49.373Z,32.25
2022-08-02T03:02:22.728Z,32.24
2022-08-02T03:04:58.304Z,32.24
2022-08-02T03:07:29.881Z,32.23
2022-08-02T03:10:01.671Z,32.22
2022-08-02T03:12:34.251Z,32.22
2022-08-02T03:15:10.398Z,32.22
2022-08-02T03:17:44.298Z,32.18
2022-08-02T03:20:23.244Z,32.17
2022-08-02T03:22:54.442Z,32.18
2022-08-02T03:25:25.892Z,32.18
2022-08-02T03:27:56.446Z,32.18
2022-08-02T03:30:28.572Z,32.17
2022-08-02T03:33:00.046Z,32.16
2022-08-02T03:35:33.050Z,32.16
2022-08-02T03:38:04.675Z,32.14
2022-08-02T03:40:36.074Z,32.12
2022-08-02T03:43:08.819Z,32.12
2022-08-02T03:45:43.004Z,32.13
2022-08-02T03:48:31.805Z,32.13
2022-08-02T03:51:08.967Z,32.14
2022-08-02T03:53:41.138Z,32.14
2022-08-02T03:56:13.604Z,32.17
2022-08-02T03:58:48.866Z,32.18
2022-08-02T04:01:19.948Z,32.19
2022-08-02T04:03:50.915Z,32.22
2022-08-02T04:06:28.375Z,32.24
2022-08-02T04:08:59.963Z,32.23
2022-08-02T04:11:34.424Z,32.25
2022-08-02T04:14:08.254Z,32.26
2022-08-02T04:16:47.271Z,32.29
2022-08-02T04:19:25.340Z,32.31
2022-08-02T04:22:00.919Z,32.33
2022-08-02T04:24:37.613Z,32.35
2022-08-02T04:27:51.278Z,32.37
2022-08-02T04:30:05.597Z,32.39
2022-08-02T04:32:38.772Z,32.42
2022-08-02T04:35:19.117Z,32.46
2022-08-02T04:38:08.907Z,32.48
2022-08-02T04:40:42.337Z,32.49
2022-08-02T04:43:13.400Z,32.50
2022-08-02T04:45:45.581Z,32.54
2022-08-02T04:48:16.663Z,32.57
2022-08-02T04:50:48.146Z,32.60
2022-08-02T04:53:22.100Z,32.61
2022-08-02T04:55:53.971Z,32.64
2022-08-02T04:58:39.866Z,32.67
2022-08-02T05:01:11.817Z,32.68
2022-08-02T05:03:41.967Z,32.72
2022-08-02T05:06:18.877Z,32.77
2022-08-02T05:08:54.135Z,32.80
2022-08-02T05:11:34.446Z,32.84
2022-08-02T05:14:09.182Z,32.88
2022-08-02T05:16:40.262Z,32.90
2022-08-02T05:19:11.348Z,32.93
2022-08-02T05:21:42.380Z,32.98
2022-08-02T05:24:15.731Z,33.05
2022-08-02T05:26:46.922Z,33.12
2022-08-02T05:29:18.303Z,33.17
2022-08-02T05:31:49.416Z,33.22
2022-08-02T05:34:20.702Z,33.25
2022-08-02T05:36:52.406Z,33.27
2022-08-02T05:39:25.400Z,33.30
2022-08-02T05:42:02.735Z,33.32
2022-08-02T05:44:33.512Z,33.35
2022-08-02T05:47:05.583Z,33.40
2022-08-02T05:49:35.889Z,33.42
2022-08-02T05:52:16.555Z,33.49
2022-08-02T05:55:00.719Z,33.54
2022-08-02T05:57:53.932Z,33.57
2022-08-02T06:00:25.868Z,33.61
2022-08-02T06:03:19.196Z,33.64
2022-08-02T06:06:03.717Z,33.65
2022-08-02T06:08:48.045Z,33.67
2022-08-02T06:11:25.240Z,33.68
2022-08-02T06:13:57.638Z,33.70
2022-08-02T06:16:32.773Z,33.71
2022-08-02T06:19:04.834Z,33.71
2022-08-02T06:22:31.847Z,33.71
2022-08-02T06:24:30.935Z,33.74
2022-08-02T06:27:06.226Z,33.80
2022-08-02T06:29:40.689Z,33.86
2022-08-02T06:32:11.818Z,33.91
2022-08-02T06:34:44.231Z,33.94
2022-08-02T06:37:29.824Z,34.00
2022-08-02T06:40:11.980Z,34.05
2022-08-02T06:42:54.706Z,34.13
2022-08-02T06:45:25.918Z,34.19
2022-08-02T06:47:58.014Z,34.25
2022-08-02T06:50:29.721Z,34.30
2022-08-02T06:53:01.136Z,34.37
2022-08-02T06:55:32.800Z,34.44
2022-08-02T06:58:17.531Z,34.51
2022-08-02T07:00:47.994Z,34.59
2022-08-02T07:03:18.664Z,34.66
2022-08-02T07:05:49.654Z,34.74
2022-08-02T07:08:21.422Z,34.80
2022-08-02T07:10:52.290Z,34.86
2022-08-02T07:13:25.240Z,34.93
2022-08-02T07:15:56.300Z,35.00
2022-08-02T07:18:28.160Z,35.07
2022-08-02T07:20:59.445Z,35.13
2022-08-02T07:23:30.934Z,35.18
2022-08-02T07:26:05.436Z,35.22
2022-08-02T07:28:39.291Z,35.28
2022-08-02T07:31:10.555Z,35.31
2022-08-02T07:33:44.417Z,35.35
2022-08-02T07:36:22.427Z,35.40
2022-08-02T07:38:54.319Z,35.44
2022-08-02T07:41:26.501Z,35.51
2022-08-02T07:43:59.014Z,35.56
2022-08-02T07:46:29.486Z,35.61
2022-08-02T07:49:00.336Z,35.64
2022-08-02T07:51:32.710Z,35.67
2022-08-02T07:54:04.769Z,35.71
2022-08-02T07:56:35.852Z,35.76
2022-08-02T07:59:10.983Z,35.80
2022-08-02T08:01:45.034Z,35.83
2022-08-02T08:04:16.593Z,35.87
2022-08-02T08:06:50.792Z,35.91
2022-08-02T08:09:22.940Z,35.94
2022-08-02T08:11:54.242Z,35.95
2022-08-02T08:14:27.245Z,35.97
2022-08-02T08:16:58.228Z,36.00
2022-08-02T08:19:43.948Z,36.05
2022-08-02T08:22:20.695Z,36.08
2022-08-02T08:24:52.406Z,36.11
2022-08-02T08:27:23.705Z,36.14
2022-08-02T08:29:56.882Z,36.18
2022-08-02T08:32:27.639Z,36.21
2022-08-02T08:34:58.070Z,36.24
2022-08-02T08:37:29.201Z,36.28
2022-08-02T08:40:00.213Z,36.29
2022-08-02T08:42:32.029Z,36.31
2022-08-02T08:45:04.899Z,36.35
2022-08-02T08:47:38.429Z,36.38
2022-08-02T08:50:26.937Z,36.41
2022-08-02T08:53:08.227Z,36.45
2022-08-02T08:55:40.830Z,36.45
2022-08-02T08:58:11.434Z,36.48
2022-08-02T09:00:44.685Z,36.48
2022-08-02T09:03:15.979Z,36.51
2022-08-02T09:05:47.777Z,36.52
2022-08-02T09:08:19.580Z,36.54
2022-08-02T09:10:50.965Z,36.54
2022-08-02T09:13:31.371Z,36.52
2022-08-02T09:16:18.323Z,36.52
2022-08-02T09:18:50.490Z,36.52
2022-08-02T09:21:21.558Z,36.53
2022-08-02T09:23:56.143Z,36.56
2022-08-02T09:26:28.957Z,36.57
2022-08-02T09:29:05.493Z,36.60
2022-08-02T09:31:40.697Z,36.61
2022-08-02T09:34:22.935Z,36.62
2022-08-02T09:36:55.427Z,36.63
2022-08-02T09:39:28.101Z,36.64
2022-08-02T09:42:14.097Z,36.68
2022-08-02T09:44:58.304Z,36.69
2022-08-02T09:47:37.306Z,36.68
2022-08-02T09:50:14.870Z,36.68
2022-08-02T09:52:46.363Z,36.68
2022-08-02T09:55:17.074Z,36.67
2022-08-02T09:57:51.063Z,36.63
2022-08-02T10:00:43.410Z,36.60
2022-08-02T10:03:22.169Z,36.61
2022-08-02T10:06:02.230Z,36.59
2022-08-02T10:08:35.335Z,36.56
2022-08-02T10:11:06.477Z,36.57
2022-08-02T10:13:38.624Z,36.58
2022-08-02T10:16:09.336Z,36.59
2022-08-02T10:18:43.140Z,36.61
2022-08-02T10:21:30.444Z,36.62
2022-08-02T10:24:10.202Z,36.63
2022-08-02T10:26:45.541Z,36.62
2022-08-02T10:29:22.283Z,36.60
2022-08-02T10:32:00.395Z,36.58
2022-08-02T10:34:38.407Z,36.58
2022-08-02T10:37:15.037Z,36.59
2022-08-02T10:39:50.867Z,36.62
2022-08-02T10:42:51.358Z,36.59
2022-08-02T10:45:25.864Z,36.58
2022-08-02T10:48:06.761Z,36.56
2022-08-02T10:51:07.119Z,36.55
2022-08-02T10:53:37.965Z,36.56
2022-08-02T10:56:09.770Z,36.58
2022-08-02T10:58:41.455Z,36.59
2022-08-02T11:01:38.894Z,36.62
2022-08-02T11:04:11.879Z,36.62
2022-08-02T11:07:17.748Z,36.60
2022-08-02T11:09:49.459Z,36.58
2022-08-02T11:12:22.769Z,36.59
2022-08-02T11:15:07.722Z,36.60
2022-08-02T11:17:57.954Z,36.60
2022-08-02T11:20:29.295Z,36.59
2022-08-02T11:23:45.191Z,36.61
2022-08-02T11:26:48.438Z,36.61
2022-08-02T11:29:20.829Z,36.62
2022-08-02T11:31:52.739Z,36.63
2022-08-02T11:34:36.824Z,36.64
2022-08-02T11:37:10.575Z,36.62
2022-08-02T11:39:43.187Z,36.62
2022-08-02T11:42:14.029Z,36.61
2022-08-02T11:44:47.840Z,36.63
2022-08-02T11:47:20.627Z,36.60
2022-08-02T11:49:52.015Z,36.59
2022-08-02T11:52:41.994Z,36.58
2022-08-02T11:55:16.172Z,36.56
2022-08-02T11:58:03.228Z,36.54
2022-08-02T12:00:37.253Z,36.55
2022-08-02T12:03:10.626Z,36.55
2022-08-02T12:06:04.712Z,36.54
2022-08-02T12:08:32.902Z,36.50
2022-08-02T12:11:07.873Z,36.51
2022-08-02T12:13:56.529Z,36.53
2022-08-02T12:16:44.882Z,36.54
2022-08-02T12:19:27.939Z,36.52
2022-08-02T12:22:19.852Z,36.50
2022-08-02T12:24:57.244Z,36.48
2022-08-02T12:27:42.198Z,36.48
2022-08-02T12:30:16.098Z,36.47
2022-08-02T12:32:48.334Z,36.48
2022-08-02T12:35:26.402Z,36.48
2022-08-02T12:37:59.508Z,36.48
2022-08-02T12:40:36.761Z,36.46
2022-08-02T12:43:18.844Z,36.43
2022-08-02T12:45:53.621Z,36.39
2022-08-02T12:48:56.498Z,36.40
2022-08-02T12:51:50.872Z,36.34
2022-08-02T12:54:31.492Z,36.30
2022-08-02T12:57:15.055Z,36.26
2022-08-02T12:59:55.863Z,36.23
2022-08-02T13:02:35.035Z,36.21
2022-08-02T13:05:06.914Z,36.19
2022-08-02T13:07:37.840Z,36.16
2022-08-02T13:10:09.365Z,36.15
2022-08-02T13:12:41.101Z,36.13
2022-08-02T13:15:49.149Z,36.10
2022-08-02T13:18:06.131Z,36.06
2022-08-02T13:20:40.246Z,36.01
2022-08-02T13:23:21.073Z,35.98
2022-08-02T13:25:55.910Z,35.96
2022-08-02T13:28:27.480Z,35.94
2022-08-02T13:31:20.609Z,35.88
2022-08-02T13:33:51.756Z,35.82
2022-08-02T13:36:22.915Z,35.80
2022-08-02T13:38:54.735Z,35.80
2022-08-02T13:41:26.435Z,35.74
2022-08-02T13:44:06.161Z,35.69
2022-08-02T13:46:45.259Z,35.63
2022-08-02T13:49:19.815Z,35.58
2022-08-02T13:51:51.463Z,35.53
2022-08-02T13:54:22.768Z,35.49
2022-08-02T13:56:54.170Z,35.47
2022-08-02T13:59:56.788Z,35.44
2022-08-02T14:02:18.672Z,35.40
2022-08-02T14:04:49.940Z,35.37
2022-08-02T14:07:22.098Z,35.35
2022-08-02T14:09:52.491Z,35.32
2022-08-02T14:12:23.519Z,35.31
2022-08-02T14:14:55.614Z,35.31
2022-08-02T14:17:30.168Z,35.32
2022-08-02T14:20:01.842Z,35.32
2022-08-02T14:22:32.409Z,35.31
2022-08-02T14:25:09.694Z,35.30
2022-08-02T14:27:40.202Z,35.28
2022-08-02T14:30:12.114Z,35.25
2022-08-02T14:32:44.718Z,35.24
2022-08-02T14:35:16.617Z,35.21
2022-08-02T14:37:48.993Z,35.22
2022-08-02T14:40:27.882Z,35.19
2022-08-02T14:43:04.182Z,35.16
2022-08-02T14:45:39.842Z,35.13
2022-08-02T14:48:15.213Z,35.12
2022-08-02T14:50:46.346Z,35.11
2022-08-02T14:53:16.627Z,35.13
2022-08-02T14:55:48.449Z,35.12
2022-08-02T14:58:19.785Z,35.11
2022-08-02T15:00:51.549Z,35.10
2022-08-02T15:03:29.495Z,35.06
2022-08-02T15:06:01.682Z,35.03
2022-08-02T15:08:33.577Z,35.01
2022-08-02T15:11:04.275Z,35.01
2022-08-02T15:13:38.103Z,34.99
2022-08-02T15:16:13.880Z,34.97
2022-08-02T15:18:47.182Z,34.94
2022-08-02T15:21:41.777Z,34.91
2022-08-02T15:24:11.989Z,34.85
2022-08-02T15:26:43.045Z,34.81
2022-08-02T15:29:14.154Z,34.79
2022-08-02T15:31:46.033Z,34.77
2022-08-02T15:34:18.964Z,34.75
2022-08-02T15:36:50.255Z,34.72
2022-08-02T15:39:21.808Z,34.70
2022-08-02T15:41:55.976Z,34.67
2022-08-02T15:44:27.589Z,34.64
2022-08-02T15:46:58.843Z,34.61
2022-08-02T15:49:31.871Z,34.60
2022-08-02T15:52:05.665Z,34.56
2022-08-02T15:54:36.405Z,34.54
2022-08-02T15:57:08.453Z,34.54
2022-08-02T15:59:39.674Z,34.51
2022-08-02T16:02:11.768Z,34.49
2022-08-02T16:04:44.880Z,34.46
2022-08-02T16:07:15.711Z,34.44
2022-08-02T16:09:46.270Z,34.42
2022-08-02T16:12:17.589Z,34.41
2022-08-02T16:14:48.824Z,34.40
2022-08-02T16:17:48.250Z,34.38
2022-08-02T16:20:14.834Z,34.35
2022-08-02T16:22:46.212Z,34.33
2022-08-02T16:25:17.615Z,34.32
2022-08-02T16:28:06.007Z,34.30
2022-08-02T16:30:39.239Z,34.26
2022-08-02T16:33:10.512Z,34.24
2022-08-02T16:35:47.721Z,34.23
2022-08-02T16:38:18.704Z,34.21
2022-08-02T16:40:49.637Z,34.18
2022-08-02T16:43:22.229Z,34.18
2022-08-02T16:45:53.508Z,34.17
2022-08-02T16:48:25.516Z,34.17
2022-08-02T16:50:58.893Z,34.17
2022-08-02T16:53:58.976Z,34.13
2022-08-02T16:56:29.880Z,34.09
2022-08-02T16:59:02.409Z,34.07
2022-08-02T17:02:03.345Z,34.05
2022-08-02T17:04:25.283Z,34.03
2022-08-02T17:07:01.838Z,34.04
2022-08-02T17:10:02.046Z,34.03
2022-08-02T17:12:23.351Z,34.00
2022-08-02T17:17:45.520Z,33.93
2022-08-02T17:20:17.348Z,33.94
2022-08-02T17:22:52.184Z,33.90
2022-08-02T17:25:24.783Z,33.87
2022-08-02T17:27:56.494Z,33.84
2022-08-02T17:30:28.816Z,33.81
2022-08-02T17:32:59.599Z,33.77
2022-08-02T17:35:40.022Z,33.75
2022-08-02T17:38:26.341Z,33.72
2022-08-02T17:40:59.351Z,33.70
2022-08-02T17:43:31.476Z,33.71
2022-08-02T17:46:03.506Z,33.72
2022-08-02T17:48:55.506Z,33.70
2022-08-02T17:52:15.944Z,33.67
2022-08-02T17:54:21.914Z,33.64
2022-08-02T17:56:54.567Z,33.65
2022-08-02T17:59:31.109Z,33.66
2022-08-02T18:02:13.379Z,33.67
2022-08-02T18:04:48.843Z,33.63
2022-08-02T18:07:25.274Z,33.61
2022-08-02T18:09:58.259Z,33.58
2022-08-02T18:12:30.275Z,33.54
2022-08-02T18:15:00.912Z,33.51
2022-08-02T18:17:32.791Z,33.48
2022-08-02T18:20:10.197Z,33.48
2022-08-02T18:22:44.913Z,33.48
2022-08-02T18:25:37.528Z,33.52
2022-08-02T18:28:10.039Z,33.50
2022-08-02T18:30:42.926Z,33.49
2022-08-02T18:33:57.605Z,33.50
2022-08-02T18:36:06.292Z,33.49
2022-08-02T18:38:39.617Z,33.49
2022-08-02T18:41:18.952Z,33.48
2022-08-02T18:43:52.973Z,33.47
2022-08-02T18:46:24.288Z,33.47
2022-08-02T18:49:06.751Z,33.49
2022-08-02T18:51:46.411Z,33.48
2022-08-02T18:54:26.583Z,33.49
2022-08-02T18:57:04.215Z,33.49
2022-08-02T18:59:55.259Z,33.45
2022-08-02T19:02:26.011Z,33.46
2022-08-02T19:05:00.382Z,33.46
2022-08-02T19:07:50.387Z,33.46
2022-08-02T19:10:23.441Z,33.47
2022-08-02T19:12:58.934Z,33.50
2022-08-02T19:15:31.668Z,33.50
2022-08-02T19:18:02.725Z,33.47
2022-08-02T19:20:35.945Z,33.44
2022-08-02T19:23:10.381Z,33.41
2022-08-02T19:25:50.311Z,33.39
2022-08-02T19:28:29.055Z,33.35
2022-08-02T19:31:00.800Z,33.34
2022-08-02T19:34:04.749Z,33.33
2022-08-02T19:36:22.549Z,33.34
2022-08-02T19:38:57.159Z,33.34
2022-08-02T19:41:28.463Z,33.36
2022-08-02T19:44:26.508Z,33.36
2022-08-02T19:47:00.331Z,33.34
2022-08-02T19:49:39.420Z,33.35
2022-08-02T19:52:21.869Z,33.35
2022-08-02T19:54:57.904Z,33.33
2022-08-02T19:57:34.455Z,33.32
2022-08-02T20:00:13.434Z,33.31
2022-08-02T20:02:52.951Z,33.31
2022-08-02T20:05:27.133Z,33.29
2022-08-02T20:07:59.603Z,33.28
2022-08-02T20:10:32.110Z,33.26
2022-08-02T20:13:04.657Z,33.22
2022-08-02T20:15:55.723Z,33.21
2022-08-02T20:18:30.130Z,33.20
2022-08-02T20:21:01.286Z,33.22
2022-08-02T20:23:34.430Z,33.24
2022-08-02T20:26:09.026Z,33.26
2022-08-02T20:28:39.961Z,33.26
2022-08-02T20:31:12.962Z,33.28
2022-08-02T20:33:55.479Z,33.28
2022-08-02T20:36:27.924Z,33.29
2022-08-02T20:38:59.740Z,33.29
2022-08-02T20:41:36.746Z,33.31
2022-08-02T20:44:15.438Z,33.30
2022-08-02T20:47:04.000Z,33.30
2022-08-02T20:49:40.875Z,33.31
2022-08-02T20:52:23.450Z,33.33
2022-08-02T20:54:55.587Z,33.31
2022-08-02T20:57:48.869Z,33.32
2022-08-02T21:00:18.062Z,33.30
2022-08-02T21:02:54.431Z,33.29
2022-08-02T21:05:43.294Z,33.27
2022-08-02T21:08:16.172Z,33.25
2022-08-02T21:10:52.015Z,33.25
2022-08-02T21:13:26.169Z,33.24
2022-08-02T21:16:02.165Z,33.23
2022-08-02T21:18:42.823Z,33.24
2022-08-02T21:21:14.619Z,33.22
2022-08-02T21:23:48.923Z,33.19
2022-08-02T21:26:30.526Z,33.14
2022-08-02T21:29:06.092Z,33.12
2022-08-02T21:31:37.649Z,33.11
2022-08-02T21:34:26.588Z,33.11
2022-08-02T21:36:58.650Z,33.11
2022-08-02T21:39:30.401Z,33.11
2022-08-02T21:42:01.878Z,33.13
2022-08-02T21:44:33.274Z,33.14
2022-08-02T21:47:04.823Z,33.14
2022-08-02T21:50:08.687Z,33.16
2022-08-02T21:52:31.398Z,33.16
2022-08-02T21:55:05.980Z,33.17
2022-08-02T21:57:40.094Z,33.18
2022-08-02T22:00:16.665Z,33.18
2022-08-02T22:03:00.761Z,33.17
2022-08-02T22:05:53.893Z,33.17
2022-08-02T22:08:25.169Z,33.16
2022-08-02T22:11:16.851Z,33.17
2022-08-02T22:13:48.964Z,33.15
2022-08-02T22:16:21.901Z,33.16
2022-08-02T22:18:53.668Z,33.16
2022-08-02T22:21:32.369Z,33.16
2022-08-02T22:24:19.531Z,33.14
2022-08-02T22:26:58.965Z,33.14
2022-08-02T22:29:30.965Z,33.14
2022-08-02T22:32:03.205Z,33.13
2022-08-02T22:34:51.661Z,33.14
2022-08-02T22:38:17.052Z,33.13
2022-08-02T22:40:16.350Z,33.13
2022-08-02T22:42:47.521Z,33.12
2022-08-02T22:45:18.832Z,33.13
2022-08-02T22:47:51.104Z,33.13
2022-08-02T22:50:22.615Z,33.12
2022-08-02T22:52:55.533Z,33.12
2022-08-02T22:55:32.287Z,33.11
2022-08-02T22:58:04.539Z,33.11
2022-08-02T22:58:37.496Z,33.96
2022-08-02T23:00:36.030Z,33.11
2022-08-02T23:03:07.443Z,33.12
2022-08-02T23:05:39.532Z,33.12
2022-08-02T23:08:12.800Z,33.11
2022-08-02T23:10:44.073Z,33.10
2022-08-02T23:13:15.113Z,33.10
2022-08-02T23:16:03.828Z,33.08
2022-08-02T23:19:02.686Z,33.07
2022-08-02T23:22:02.282Z,33.05
2022-08-02T23:24:38.949Z,33.04
2022-08-02T23:27:10.842Z,33.03
2022-08-02T23:29:42.499Z,33.03
2022-08-02T23:32:14.762Z,33.03
2022-08-02T23:34:46.854Z,33.03
2022-08-02T23:37:23.139Z,33.03
2022-08-02T23:39:56.315Z,33.03
2022-08-02T23:42:27.468Z,33.02
2022-08-02T23:44:58.345Z,33.03
2022-08-02T23:47:29.561Z,33.03
2022-08-02T23:50:00.459Z,33.02
2022-08-02T23:52:31.773Z,33.02
2022-08-02T23:55:05.468Z,33.01
2022-08-02T23:57:36.453Z,33.01
